Sea Dweller — WDH9653 — position and weather

sailwx.info

Track history (hours):
 
Tides and Currents Weather Stations Pressure Air Temp Water Temp Dewpoint Dewpoint Depression Visibility Wind Speed Wind Dir Waves Ship Positions

Sea Dweller

Owner: Hall, Jeffrey W, Richmond, VA. More information available from US FCC via Universal Licensing System and Coast Guard Vessel Documentation Center.

Last reported at 2017-Oct-13 11:35 UTC. Time now 2017-Oct-18 23:53 UTC.
Position N 34°38' W 076°44'.

Length 13 m.

Type: Pleasure craft. MMSI: 367670250.

Date/timePositionNaut miles runAvg speedWind from/ knotsBaromVisibWave heightAir tempDewpointWater temp
2017-Oct-13 11:35N 34°38' W 076°44'1 7.4
2017-Oct-13 11:30N 34°38' W 076°44'4 7.4
2017-Oct-13 11:00N 34°41' W 076°40'3 6.0
2017-Oct-13 10:28N 34°43' W 076°42'0 0.0
2017-Oct-13 09:58N 34°43' W 076°42'0 0.0
2017-Oct-13 09:28N 34°43' W 076°42'0 0.0
2017-Oct-13 08:59N 34°43' W 076°42'0 0.0
2017-Oct-13 08:22N 34°43' W 076°42'0 0.0
2017-Oct-13 08:00N 34°43' W 076°42'0 0.0
2017-Oct-13 07:17N 34°43' W 076°42'0 0.0
2017-Oct-13 06:59N 34°43' W 076°42'0 0.0
2017-Oct-13 06:29N 34°43' W 076°42'0 0.0
2017-Oct-13 05:59N 34°43' W 076°42'0 0.0
2017-Oct-13 05:30N 34°43' W 076°42'0 0.0
2017-Oct-13 04:52N 34°43' W 076°42'0 0.0
2017-Oct-13 04:25N 34°43' W 076°42'0 0.0
2017-Oct-13 03:58N 34°43' W 076°42'0 0.0
2017-Oct-13 03:25N 34°43' W 076°42'0 0.0
2017-Oct-13 03:00N 34°43' W 076°42'0 0.0
2017-Oct-13 02:30N 34°43' W 076°42'0 0.0
2017-Oct-13 01:59N 34°43' W 076°42'0 0.0
2017-Oct-13 01:29N 34°43' W 076°42'0 0.0
2017-Oct-13 01:00N 34°43' W 076°42'0 0.0
2017-Oct-13 00:25N 34°43' W 076°42'0 0.0
2017-Oct-12 23:59N 34°43' W 076°42'0 0.0
2017-Oct-12 23:30N 34°43' W 076°42'0 0.0
2017-Oct-12 22:59N 34°43' W 076°42'0 0.0
2017-Oct-12 22:29N 34°43' W 076°42'0 0.0
2017-Oct-12 22:00N 34°43' W 076°42'0 0.0
2017-Oct-12 21:29N 34°43' W 076°42'0 0.0
2017-Oct-12 20:59N 34°43' W 076°42'0 0.0
2017-Oct-12 20:28N 34°43' W 076°42'0 0.0
2017-Oct-12 19:58N 34°43' W 076°42'0 0.0
2017-Oct-12 19:29N 34°43' W 076°42'0 0.0
2017-Oct-12 18:58N 34°43' W 076°42'0 0.0
2017-Oct-12 18:25N 34°43' W 076°42'0 0.0
2017-Oct-12 17:58N 34°43' W 076°42'0 0.0
2017-Oct-12 17:29N 34°43' W 076°42'2 4.6
2017-Oct-12 17:00N 34°45' W 076°41'3 6.2
2017-Oct-12 16:30N 34°48' W 076°41'  
Track history (hours):
 
Tides and Currents Weather Stations Pressure Air Temp Water Temp Dewpoint Dewpoint Depression Visibility Wind Speed Wind Dir Waves Ship Positions

Sea Dweller

Owner: Hall, Jeffrey W, Richmond, VA. More information available from US FCC via Universal Licensing System and Coast Guard Vessel Documentation Center.

Last reported at 2017-Oct-13 11:35 UTC. Time now 2017-Oct-18 23:53 UTC.
Position N 34°38' W 076°44'.

Length 13 m.

Type: Pleasure craft. MMSI: 367670250.

Date/timePositionNaut miles runAvg speedWind from/ knotsBaromVisibWave heightAir tempDewpointWater temp
2017-Oct-13 11:35N 34°38' W 076°44'1 7.4
2017-Oct-13 11:30N 34°38' W 076°44'4 7.4
2017-Oct-13 11:00N 34°41' W 076°40'3 6.0
2017-Oct-13 10:28N 34°43' W 076°42'0 0.0
2017-Oct-13 09:58N 34°43' W 076°42'0 0.0
2017-Oct-13 09:28N 34°43' W 076°42'0 0.0
2017-Oct-13 08:59N 34°43' W 076°42'0 0.0
2017-Oct-13 08:22N 34°43' W 076°42'0 0.0
2017-Oct-13 08:00N 34°43' W 076°42'0 0.0
2017-Oct-13 07:17N 34°43' W 076°42'0 0.0
2017-Oct-13 06:59N 34°43' W 076°42'0 0.0
2017-Oct-13 06:29N 34°43' W 076°42'0 0.0
2017-Oct-13 05:59N 34°43' W 076°42'0 0.0
2017-Oct-13 05:30N 34°43' W 076°42'0 0.0
2017-Oct-13 04:52N 34°43' W 076°42'0 0.0
2017-Oct-13 04:25N 34°43' W 076°42'0 0.0
2017-Oct-13 03:58N 34°43' W 076°42'0 0.0
2017-Oct-13 03:25N 34°43' W 076°42'0 0.0
2017-Oct-13 03:00N 34°43' W 076°42'0 0.0
2017-Oct-13 02:30N 34°43' W 076°42'0 0.0
2017-Oct-13 01:59N 34°43' W 076°42'0 0.0
2017-Oct-13 01:29N 34°43' W 076°42'0 0.0
2017-Oct-13 01:00N 34°43' W 076°42'0 0.0
2017-Oct-13 00:25N 34°43' W 076°42'0 0.0
2017-Oct-12 23:59N 34°43' W 076°42'0 0.0
2017-Oct-12 23:30N 34°43' W 076°42'0 0.0
2017-Oct-12 22:59N 34°43' W 076°42'0 0.0
2017-Oct-12 22:29N 34°43' W 076°42'0 0.0
2017-Oct-12 22:00N 34°43' W 076°42'0 0.0
2017-Oct-12 21:29N 34°43' W 076°42'0 0.0
2017-Oct-12 20:59N 34°43' W 076°42'0 0.0
2017-Oct-12 20:28N 34°43' W 076°42'0 0.0
2017-Oct-12 19:58N 34°43' W 076°42'0 0.0
2017-Oct-12 19:29N 34°43' W 076°42'0 0.0
2017-Oct-12 18:58N 34°43' W 076°42'0 0.0
2017-Oct-12 18:25N 34°43' W 076°42'0 0.0
2017-Oct-12 17:58N 34°43' W 076°42'0 0.0
2017-Oct-12 17:29N 34°43' W 076°42'2 4.6
2017-Oct-12 17:00N 34°45' W 076°41'3 6.2
2017-Oct-12 16:30N 34°48' W 076°41'  

Dump ship's entire track history